sensor_id;sensor_type;location;lat;lon;timestamp;pressure;altitude;pressure_sealevel;temperature;humidity
27958;BME280;15295;42.658;23.374;2023-09-19T00:00:08;95007.25;;;21.91;47.61
27958;BME280;15295;42.658;23.374;2023-09-19T00:02:43;94995.13;;;21.76;47.84
27958;BME280;15295;42.658;23.374;2023-09-19T00:05:22;95013.22;;;21.81;47.65
27958;BME280;15295;42.658;23.374;2023-09-19T00:07:50;95019.53;;;21.72;48.06
27958;BME280;15295;42.658;23.374;2023-09-19T00:10:24;95023.41;;;21.75;47.91
27958;BME280;15295;42.658;23.374;2023-09-19T00:13:07;94990.56;;;21.61;48.47
27958;BME280;15295;42.658;23.374;2023-09-19T00:15:45;95006.75;;;21.84;47.98
27958;BME280;15295;42.658;23.374;2023-09-19T00:18:33;95003.06;;;21.87;48.09
27958;BME280;15295;42.658;23.374;2023-09-19T00:21:00;95009.84;;;21.86;47.90
27958;BME280;15295;42.658;23.374;2023-09-19T00:23:44;95011.66;;;21.80;48.20
27958;BME280;15295;42.658;23.374;2023-09-19T00:26:09;95005.09;;;21.65;48.57
27958;BME280;15295;42.658;23.374;2023-09-19T00:28:36;94999.81;;;21.48;48.99
27958;BME280;15295;42.658;23.374;2023-09-19T00:31:26;95009.31;;;21.38;49.52
27958;BME280;15295;42.658;23.374;2023-09-19T00:36:24;95007.63;;;21.32;49.57
27958;BME280;15295;42.658;23.374;2023-09-19T00:38:50;94999.91;;;21.36;49.31
27958;BME280;15295;42.658;23.374;2023-09-19T00:41:15;94995.09;;;21.36;49.53
27958;BME280;15295;42.658;23.374;2023-09-19T00:43:42;94960.44;;;21.19;49.65
27958;BME280;15295;42.658;23.374;2023-09-19T00:46:07;94987.22;;;21.35;49.50
27958;BME280;15295;42.658;23.374;2023-09-19T00:48:40;94975.00;;;21.32;49.76
27958;BME280;15295;42.658;23.374;2023-09-19T00:51:06;94973.78;;;21.33;50.16
27958;BME280;15295;42.658;23.374;2023-09-19T00:53:32;94973.16;;;21.29;50.31
27958;BME280;15295;42.658;23.374;2023-09-19T00:55:59;94956.44;;;21.20;49.78
27958;BME280;15295;42.658;23.374;2023-09-19T00:58:25;94986.31;;;21.38;49.76
27958;BME280;15295;42.658;23.374;2023-09-19T01:00:51;94980.56;;;21.32;49.64
27958;BME280;15295;42.658;23.374;2023-09-19T01:03:18;95000.97;;;21.29;49.71
27958;BME280;15295;42.658;23.374;2023-09-19T01:05:44;94982.25;;;21.30;50.02
27958;BME280;15295;42.658;23.374;2023-09-19T01:08:09;94981.66;;;21.35;49.90
27958;BME280;15295;42.658;23.374;2023-09-19T01:10:42;94982.75;;;21.37;50.02
27958;BME280;15295;42.658;23.374;2023-09-19T01:13:43;94992.53;;;21.42;49.68
27958;BME280;15295;42.658;23.374;2023-09-19T01:16:53;94995.47;;;21.47;49.83
27958;BME280;15295;42.658;23.374;2023-09-19T01:22:13;94976.63;;;21.42;50.11
27958;BME280;15295;42.658;23.374;2023-09-19T01:30:14;94977.78;;;21.32;50.64
27958;BME280;15295;42.658;23.374;2023-09-19T01:32:42;94989.06;;;21.29;50.87
27958;BME280;15295;42.658;23.374;2023-09-19T01:35:08;94984.91;;;21.33;50.74
27958;BME280;15295;42.658;23.374;2023-09-19T01:37:37;94988.00;;;21.35;50.63
27958;BME280;15295;42.658;23.374;2023-09-19T01:40:04;94989.22;;;21.34;50.55
27958;BME280;15295;42.658;23.374;2023-09-19T01:51:05;94973.53;;;21.10;51.18
27958;BME280;15295;42.658;23.374;2023-09-19T01:54:04;94977.34;;;21.03;51.17
27958;BME280;15295;42.658;23.374;2023-09-19T01:56:59;94959.13;;;20.81;51.80
27958;BME280;15295;42.658;23.374;2023-09-19T01:59:35;94977.41;;;20.91;51.67
27958;BME280;15295;42.658;23.374;2023-09-19T02:02:04;94979.41;;;20.90;52.15
27958;BME280;15295;42.658;23.374;2023-09-19T02:04:33;94984.31;;;20.86;52.11
27958;BME280;15295;42.658;23.374;2023-09-19T02:07:00;94985.59;;;20.94;51.90
27958;BME280;15295;42.658;23.374;2023-09-19T02:09:30;95003.53;;;21.02;51.54
27958;BME280;15295;42.658;23.374;2023-09-19T02:11:55;94996.97;;;21.09;51.59
27958;BME280;15295;42.658;23.374;2023-09-19T02:14:21;94973.53;;;21.10;51.35
27958;BME280;15295;42.658;23.374;2023-09-19T02:16:47;94978.16;;;21.13;51.32
27958;BME280;15295;42.658;23.374;2023-09-19T02:19:15;94985.44;;;21.19;51.31
27958;BME280;15295;42.658;23.374;2023-09-19T02:21:40;94990.88;;;21.23;51.38
27958;BME280;15295;42.658;23.374;2023-09-19T02:24:06;94990.75;;;21.26;50.96
27958;BME280;15295;42.658;23.374;2023-09-19T02:26:33;94996.63;;;21.28;51.17
27958;BME280;15295;42.658;23.374;2023-09-19T02:29:08;94983.66;;;21.25;51.05
27958;BME280;15295;42.658;23.374;2023-09-19T02:31:38;94988.16;;;21.32;50.99
27958;BME280;15295;42.658;23.374;2023-09-19T02:34:04;94968.50;;;21.26;50.78
27958;BME280;15295;42.658;23.374;2023-09-19T02:36:31;94975.16;;;21.29;50.93
27958;BME280;15295;42.658;23.374;2023-09-19T02:38:57;94960.75;;;21.21;50.99
27958;BME280;15295;42.658;23.374;2023-09-19T02:41:22;94960.00;;;21.21;51.37
27958;BME280;15295;42.658;23.374;2023-09-19T02:43:48;94954.44;;;21.21;51.30
27958;BME280;15295;42.658;23.374;2023-09-19T02:46:14;94956.44;;;21.20;51.06
27958;BME280;15295;42.658;23.374;2023-09-19T02:48:39;94952.09;;;21.19;51.44
27958;BME280;15295;42.658;23.374;2023-09-19T02:51:08;94955.34;;;21.18;51.51
27958;BME280;15295;42.658;23.374;2023-09-19T02:53:33;94946.06;;;21.12;51.55
27958;BME280;15295;42.658;23.374;2023-09-19T02:56:00;94946.53;;;21.19;51.24
27958;BME280;15295;42.658;23.374;2023-09-19T02:58:29;94949.78;;;21.18;51.54
27958;BME280;15295;42.658;23.374;2023-09-19T03:00:55;94940.22;;;21.19;51.62
27958;BME280;15295;42.658;23.374;2023-09-19T03:03:21;94944.53;;;21.20;51.57
27958;BME280;15295;42.658;23.374;2023-09-19T03:05:48;94944.69;;;21.16;51.47
27958;BME280;15295;42.658;23.374;2023-09-19T03:08:14;94939.44;;;21.18;51.15
27958;BME280;15295;42.658;23.374;2023-09-19T03:10:46;94932.94;;;21.21;51.10
27958;BME280;15295;42.658;23.374;2023-09-19T03:13:13;94921.34;;;21.14;51.32
27958;BME280;15295;42.658;23.374;2023-09-19T03:15:42;94920.44;;;21.17;50.99
27958;BME280;15295;42.658;23.374;2023-09-19T03:18:12;94934.25;;;21.29;51.15
27958;BME280;15295;42.658;23.374;2023-09-19T03:20:53;94935.94;;;21.27;51.25
27958;BME280;15295;42.658;23.374;2023-09-19T03:23:20;94930.84;;;21.25;51.15
27958;BME280;15295;42.658;23.374;2023-09-19T03:25:45;94931.47;;;21.38;51.37
27958;BME280;15295;42.658;23.374;2023-09-19T03:28:11;94929.94;;;21.37;51.04
27958;BME280;15295;42.658;23.374;2023-09-19T03:30:37;94929.94;;;21.37;51.15
27958;BME280;15295;42.658;23.374;2023-09-19T03:33:06;94923.13;;;21.38;50.96
27958;BME280;15295;42.658;23.374;2023-09-19T03:35:32;94927.63;;;21.36;50.93
27958;BME280;15295;42.658;23.374;2023-09-19T03:37:57;94926.84;;;21.35;51.00
27958;BME280;15295;42.658;23.374;2023-09-19T03:40:23;94936.09;;;21.32;50.97
27958;BME280;15295;42.658;23.374;2023-09-19T03:42:50;94923.41;;;21.22;51.33
27958;BME280;15295;42.658;23.374;2023-09-19T03:45:15;94939.81;;;21.29;51.21
27958;BME280;15295;42.658;23.374;2023-09-19T03:47:47;94917.47;;;21.11;51.31
27958;BME280;15295;42.658;23.374;2023-09-19T03:50:18;94917.94;;;21.10;51.34
27958;BME280;15295;42.658;23.374;2023-09-19T03:52:48;94954.81;;;21.32;51.35
27958;BME280;15295;42.658;23.374;2023-09-19T03:55:14;94958.00;;;21.30;51.35
27958;BME280;15295;42.658;23.374;2023-09-19T03:57:40;94958.34;;;21.32;51.00
27958;BME280;15295;42.658;23.374;2023-09-19T04:00:06;94945.47;;;21.26;50.98
27958;BME280;15295;42.658;23.374;2023-09-19T04:02:43;94952.75;;;21.23;51.30
27958;BME280;15295;42.658;23.374;2023-09-19T04:05:08;94951.66;;;21.21;51.17
27958;BME280;15295;42.658;23.374;2023-09-19T04:07:35;94938.28;;;21.07;51.44
27958;BME280;15295;42.658;23.374;2023-09-19T04:10:00;94963.19;;;21.10;51.53
27958;BME280;15295;42.658;23.374;2023-09-19T04:12:27;94962.88;;;21.08;51.72
27958;BME280;15295;42.658;23.374;2023-09-19T04:14:53;94968.91;;;21.16;51.57
27958;BME280;15295;42.658;23.374;2023-09-19T04:17:18;94968.91;;;21.16;51.31
27958;BME280;15295;42.658;23.374;2023-09-19T04:19:44;94968.13;;;21.15;51.31
27958;BME280;15295;42.658;23.374;2023-09-19T04:22:11;94960.41;;;21.10;51.21
27958;BME280;15295;42.658;23.374;2023-09-19T04:24:38;94970.59;;;21.13;51.67
27958;BME280;15295;42.658;23.374;2023-09-19T04:27:04;94971.44;;;21.23;51.73
27958;BME280;15295;42.658;23.374;2023-09-19T04:29:30;94964.63;;;21.24;51.39
27958;BME280;15295;42.658;23.374;2023-09-19T04:32:12;94969.13;;;21.30;51.56
27958;BME280;15295;42.658;23.374;2023-09-19T04:34:38;94967.72;;;21.26;51.32
27958;BME280;15295;42.658;23.374;2023-09-19T04:37:04;94966.66;;;21.23;51.32
27958;BME280;15295;42.658;23.374;2023-09-19T04:39:30;94956.75;;;21.22;51.45
27958;BME280;15295;42.658;23.374;2023-09-19T04:41:58;94966.31;;;21.21;51.49
27958;BME280;15295;42.658;23.374;2023-09-19T04:44:24;94953.94;;;21.13;51.46
27958;BME280;15295;42.658;23.374;2023-09-19T04:46:49;94962.63;;;21.24;51.40
27958;BME280;15295;42.658;23.374;2023-09-19T04:49:14;94957.75;;;21.37;51.06
27958;BME280;15295;42.658;23.374;2023-09-19T04:51:40;94959.28;;;21.38;50.85
27958;BME280;15295;42.658;23.374;2023-09-19T04:54:08;94953.41;;;21.36;51.22
27958;BME280;15295;42.658;23.374;2023-09-19T04:56:39;94949.56;;;21.43;50.84
27958;BME280;15295;42.658;23.374;2023-09-19T04:59:33;94936.88;;;21.33;50.65
27958;BME280;15295;42.658;23.374;2023-09-19T05:15:21;94939.25;;;21.52;50.42
27958;BME280;15295;42.658;23.374;2023-09-19T05:17:51;94943.56;;;21.53;50.13
27958;BME280;15295;42.658;23.374;2023-09-19T05:20:17;94950.28;;;21.74;50.79
27958;BME280;15295;42.658;23.374;2023-09-19T05:23:08;94947.25;;;21.90;50.00
27958;BME280;15295;42.658;23.374;2023-09-19T05:25:35;94951.16;;;22.02;49.87
27958;BME280;15295;42.658;23.374;2023-09-19T05:28:10;94943.56;;;22.11;49.61
27958;BME280;15295;42.658;23.374;2023-09-19T05:30:40;94936.31;;;22.23;49.19
27958;BME280;15295;42.658;23.374;2023-09-19T05:33:15;94944.66;;;22.32;49.23
27958;BME280;15295;42.658;23.374;2023-09-19T05:35:50;94940.03;;;22.47;48.38
27958;BME280;15295;42.658;23.374;2023-09-19T05:38:15;94937.53;;;22.49;48.44
27958;BME280;15295;42.658;23.374;2023-09-19T05:40:45;94939.22;;;22.74;48.41
27958;BME280;15295;42.658;23.374;2023-09-19T05:43:10;94935.16;;;22.93;47.34
27958;BME280;15295;42.658;23.374;2023-09-19T05:45:36;94939.13;;;23.10;46.78
27958;BME280;15295;42.658;23.374;2023-09-19T05:48:11;94935.91;;;23.12;47.06
27958;BME280;15295;42.658;23.374;2023-09-19T05:50:37;94933.66;;;23.34;46.90
27958;BME280;15295;42.658;23.374;2023-09-19T05:53:04;94926.38;;;23.27;45.88
27958;BME280;15295;42.658;23.374;2023-09-19T05:55:33;94924.69;;;23.21;45.71
27958;BME280;15295;42.658;23.374;2023-09-19T05:57:59;94926.56;;;23.24;45.75
27958;BME280;15295;42.658;23.374;2023-09-19T06:00:25;94918.00;;;23.36;45.93
27958;BME280;15295;42.658;23.374;2023-09-19T06:02:53;94922.75;;;23.54;45.38
27958;BME280;15295;42.658;23.374;2023-09-19T06:38:57;94912.44;;;24.16;44.40
27958;BME280;15295;42.658;23.374;2023-09-19T06:41:30;94915.66;;;24.38;44.14
27958;BME280;15295;42.658;23.374;2023-09-19T06:43:56;94901.53;;;24.42;43.42
27958;BME280;15295;42.658;23.374;2023-09-19T06:46:21;94902.19;;;24.51;44.27
27958;BME280;15295;42.658;23.374;2023-09-19T06:48:46;94913.97;;;24.70;43.64
27958;BME280;15295;42.658;23.374;2023-09-19T06:51:13;94923.09;;;24.80;43.01
27958;BME280;15295;42.658;23.374;2023-09-19T06:53:46;94921.16;;;24.86;43.22
27958;BME280;15295;42.658;23.374;2023-09-19T06:56:26;94927.91;;;24.94;43.37
27958;BME280;15295;42.658;23.374;2023-09-19T06:58:52;94893.28;;;24.77;42.77
27958;BME280;15295;42.658;23.374;2023-09-19T07:01:22;94907.19;;;24.86;43.10
27958;BME280;15295;42.658;23.374;2023-09-19T07:03:51;94931.47;;;25.09;42.99
27958;BME280;15295;42.658;23.374;2023-09-19T07:06:18;94915.94;;;25.08;42.64
27958;BME280;15295;42.658;23.374;2023-09-19T07:08:44;94930.09;;;25.34;42.46
27958;BME280;15295;42.658;23.374;2023-09-19T07:11:11;94936.00;;;25.50;42.27
27958;BME280;15295;42.658;23.374;2023-09-19T07:13:39;94926.63;;;25.53;41.72
27958;BME280;15295;42.658;23.374;2023-09-19T07:16:09;94930.44;;;25.70;41.09
27958;BME280;15295;42.658;23.374;2023-09-19T07:18:53;94906.94;;;25.48;41.39
27958;BME280;15295;42.658;23.374;2023-09-19T07:21:20;94919.03;;;25.74;40.98
27958;BME280;15295;42.658;23.374;2023-09-19T07:23:47;94914.84;;;25.84;40.62
27958;BME280;15295;42.658;23.374;2023-09-19T07:26:12;94934.06;;;26.11;40.86
27958;BME280;15295;42.658;23.374;2023-09-19T07:28:38;94905.03;;;26.09;40.28
27958;BME280;15295;42.658;23.374;2023-09-19T07:31:08;94925.19;;;26.33;40.16
27958;BME280;15295;42.658;23.374;2023-09-19T07:33:36;94916.63;;;26.42;39.34
27958;BME280;15295;42.658;23.374;2023-09-19T07:36:13;94915.38;;;26.43;39.53
27958;BME280;15295;42.658;23.374;2023-09-19T07:38:49;94914.94;;;26.50;39.26
27958;BME280;15295;42.658;23.374;2023-09-19T07:41:16;94933.72;;;26.64;38.72
27958;BME280;15295;42.658;23.374;2023-09-19T07:43:43;94924.91;;;26.51;38.72
27958;BME280;15295;42.658;23.374;2023-09-19T07:46:12;94903.91;;;26.21;38.88
27958;BME280;15295;42.658;23.374;2023-09-19T07:48:38;94928.16;;;26.24;39.65
27958;BME280;15295;42.658;23.374;2023-09-19T07:51:06;94932.34;;;26.34;39.71
27958;BME280;15295;42.658;23.374;2023-09-19T07:53:34;94908.88;;;26.31;39.28
27958;BME280;15295;42.658;23.374;2023-09-19T07:56:05;94917.31;;;26.37;38.87
27958;BME280;15295;42.658;23.374;2023-09-19T07:58:32;94944.44;;;26.45;38.87
27958;BME280;15295;42.658;23.374;2023-09-19T08:01:05;94938.16;;;26.30;38.85
27958;BME280;15295;42.658;23.374;2023-09-19T08:03:33;94908.78;;;26.06;39.51
27958;BME280;15295;42.658;23.374;2023-09-19T08:06:00;94932.25;;;26.48;38.98
27958;BME280;15295;42.658;23.374;2023-09-19T08:08:28;94940.34;;;26.41;39.09
27958;BME280;15295;42.658;23.374;2023-09-19T08:10:54;94919.03;;;26.29;39.25
27958;BME280;15295;42.658;23.374;2023-09-19T08:13:26;94905.78;;;26.29;39.09
27958;BME280;15295;42.658;23.374;2023-09-19T08:15:53;94900.53;;;26.37;38.76
27958;BME280;15295;42.658;23.374;2023-09-19T08:18:20;94914.19;;;26.29;38.94
27958;BME280;15295;42.658;23.374;2023-09-19T08:21:05;94893.19;;;26.19;39.26
27958;BME280;15295;42.658;23.374;2023-09-19T08:23:33;94896.88;;;26.31;38.97
27958;BME280;15295;42.658;23.374;2023-09-19T08:25:59;94891.22;;;26.25;39.08
27958;BME280;15295;42.658;23.374;2023-09-19T08:28:29;94916.72;;;26.47;38.98
27958;BME280;15295;42.658;23.374;2023-09-19T08:31:04;94908.31;;;26.27;38.99
27958;BME280;15295;42.658;23.374;2023-09-19T08:33:54;94877.63;;;26.18;39.09
27958;BME280;15295;42.658;23.374;2023-09-19T08:36:24;94884.75;;;26.39;38.88
27958;BME280;15295;42.658;23.374;2023-09-19T08:38:50;94896.88;;;26.51;38.66
27958;BME280;15295;42.658;23.374;2023-09-19T08:41:22;94877.19;;;26.45;38.86
27958;BME280;15295;42.658;23.374;2023-09-19T08:43:51;94878.53;;;26.75;38.06
27958;BME280;15295;42.658;23.374;2023-09-19T08:46:25;94884.19;;;27.07;38.34
27958;BME280;15295;42.658;23.374;2023-09-19T08:49:05;94881.78;;;27.25;37.44
27958;BME280;15295;42.658;23.374;2023-09-19T08:51:42;94910.97;;;27.70;36.79
27958;BME280;15295;42.658;23.374;2023-09-19T08:54:14;94888.31;;;27.79;36.82
27958;BME280;15295;42.658;23.374;2023-09-19T08:56:45;94881.25;;;27.95;36.38
27958;BME280;15295;42.658;23.374;2023-09-19T08:59:33;94877.50;;;28.09;35.72
27958;BME280;15295;42.658;23.374;2023-09-19T09:02:01;94896.22;;;28.23;35.99
27958;BME280;15295;42.658;23.374;2023-09-19T09:04:31;94872.22;;;28.22;36.06
27958;BME280;15295;42.658;23.374;2023-09-19T09:07:21;94905.31;;;28.55;35.66
27958;BME280;15295;42.658;23.374;2023-09-19T09:09:56;94896.34;;;28.56;35.40
27958;BME280;15295;42.658;23.374;2023-09-19T09:13:12;94895.63;;;28.61;35.00
27958;BME280;15295;42.658;23.374;2023-09-19T09:15:53;94895.91;;;28.74;35.00
27958;BME280;15295;42.658;23.374;2023-09-19T09:18:27;94889.75;;;28.70;35.03
27958;BME280;15295;42.658;23.374;2023-09-19T09:20:57;94869.03;;;28.68;35.23
27958;BME280;15295;42.658;23.374;2023-09-19T09:23:34;94890.06;;;28.94;34.80
27958;BME280;15295;42.658;23.374;2023-09-19T09:26:05;94876.53;;;29.04;34.48
27958;BME280;15295;42.658;23.374;2023-09-19T09:28:35;94872.19;;;29.14;34.54
27958;BME280;15295;42.658;23.374;2023-09-19T09:31:23;94881.66;;;29.28;34.33
27958;BME280;15295;42.658;23.374;2023-09-19T09:33:59;94866.56;;;29.14;34.60
27958;BME280;15295;42.658;23.374;2023-09-19T09:36:50;94880.63;;;29.47;34.15
27958;BME280;15295;42.658;23.374;2023-09-19T09:39:31;94872.44;;;29.55;33.87
27958;BME280;15295;42.658;23.374;2023-09-19T09:42:06;94870.13;;;29.64;33.60
27958;BME280;15295;42.658;23.374;2023-09-19T09:45:14;94867.81;;;29.85;33.41
27958;BME280;15295;42.658;23.374;2023-09-19T09:47:48;94847.84;;;29.78;32.91
27958;BME280;15295;42.658;23.374;2023-09-19T09:50:38;94859.63;;;29.76;32.86
27958;BME280;15295;42.658;23.374;2023-09-19T09:53:48;94829.63;;;29.73;33.13
27958;BME280;15295;42.658;23.374;2023-09-19T09:56:22;94843.41;;;29.99;32.78
27958;BME280;15295;42.658;23.374;2023-09-19T09:58:54;94822.75;;;29.63;32.71
27958;BME280;15295;42.658;23.374;2023-09-19T10:01:27;94830.97;;;29.50;32.78
27958;BME280;15295;42.658;23.374;2023-09-19T10:03:57;94850.91;;;29.63;33.13
27958;BME280;15295;42.658;23.374;2023-09-19T10:06:44;94847.56;;;29.64;32.79
27958;BME280;15295;42.658;23.374;2023-09-19T10:09:14;94827.88;;;29.59;33.04
27958;BME280;15295;42.658;23.374;2023-09-19T10:12:00;94836.34;;;29.59;32.94
27958;BME280;15295;42.658;23.374;2023-09-19T10:14:39;94841.69;;;29.68;32.75
27958;BME280;15295;42.658;23.374;2023-09-19T10:17:15;94852.97;;;29.68;33.06
27958;BME280;15295;42.658;23.374;2023-09-19T10:19:55;94832.47;;;29.62;33.09
27958;BME280;15295;42.658;23.374;2023-09-19T10:22:42;94846.28;;;29.82;33.14
27958;BME280;15295;42.658;23.374;2023-09-19T10:25:09;94838.03;;;30.01;33.10
27958;BME280;15295;42.658;23.374;2023-09-19T10:27:46;94819.09;;;29.90;32.77
27958;BME280;15295;42.658;23.374;2023-09-19T10:30:20;94838.84;;;29.90;32.86
27958;BME280;15295;42.658;23.374;2023-09-19T10:33:00;94836.03;;;29.85;32.79
27958;BME280;15295;42.658;23.374;2023-09-19T10:35:32;94824.53;;;29.77;32.81
27958;BME280;15295;42.658;23.374;2023-09-19T10:38:01;94824.53;;;29.83;32.93
27958;BME280;15295;42.658;23.374;2023-09-19T10:40:28;94812.97;;;29.86;32.97
27958;BME280;15295;42.658;23.374;2023-09-19T10:43:05;94787.13;;;29.71;33.03
27958;BME280;15295;42.658;23.374;2023-09-19T10:45:38;94818.66;;;29.81;32.78
27958;BME280;15295;42.658;23.374;2023-09-19T10:48:19;94799.94;;;29.78;33.06
27958;BME280;15295;42.658;23.374;2023-09-19T10:50:52;94799.13;;;29.94;32.82
27958;BME280;15295;42.658;23.374;2023-09-19T10:53:20;94794.22;;;30.00;32.73
27958;BME280;15295;42.658;23.374;2023-09-19T10:55:59;94821.56;;;30.21;32.36
27958;BME280;15295;42.658;23.374;2023-09-19T10:58:49;94792.94;;;30.01;32.63
27958;BME280;15295;42.658;23.374;2023-09-19T11:01:16;94812.81;;;30.25;32.47
27958;BME280;15295;42.658;23.374;2023-09-19T11:03:46;94771.13;;;30.12;32.16
27958;BME280;15295;42.658;23.374;2023-09-19T11:06:18;94783.16;;;30.07;32.14
27958;BME280;15295;42.658;23.374;2023-09-19T11:08:56;94784.72;;;30.08;32.25
27958;BME280;15295;42.658;23.374;2023-09-19T11:11:46;94797.50;;;30.09;32.57
27958;BME280;15295;42.658;23.374;2023-09-19T11:23:19;94766.09;;;29.89;32.66
27958;BME280;15295;42.658;23.374;2023-09-19T11:25:50;94790.41;;;29.97;32.74
27958;BME280;15295;42.658;23.374;2023-09-19T11:28:30;94771.44;;;29.92;32.75
27958;BME280;15295;42.658;23.374;2023-09-19T11:30:58;94784.91;;;30.16;32.64
27958;BME280;15295;42.658;23.374;2023-09-19T11:33:29;94787.44;;;30.25;32.79
27958;BME280;15295;42.658;23.374;2023-09-19T11:36:16;94759.31;;;30.14;32.58
27958;BME280;15295;42.658;23.374;2023-09-19T11:41:48;94767.63;;;30.41;32.65
27958;BME280;15295;42.658;23.374;2023-09-19T11:44:34;94766.44;;;30.26;32.78
27958;BME280;15295;42.658;23.374;2023-09-19T11:47:01;94748.81;;;30.14;32.74
27958;BME280;15295;42.658;23.374;2023-09-19T11:49:40;94741.81;;;30.26;32.87
27958;BME280;15295;42.658;23.374;2023-09-19T11:52:09;94742.00;;;30.39;32.74
27958;BME280;15295;42.658;23.374;2023-09-19T11:54:40;94713.09;;;30.33;32.75
27958;BME280;15295;42.658;23.374;2023-09-19T11:57:09;94725.09;;;30.39;32.35
27958;BME280;15295;42.658;23.374;2023-09-19T11:59:38;94716.41;;;30.37;32.25
27958;BME280;15295;42.658;23.374;2023-09-19T12:02:07;94719.44;;;30.45;32.20
27958;BME280;15295;42.658;23.374;2023-09-19T12:04:53;94689.31;;;30.23;32.55
27958;BME280;15295;42.658;23.374;2023-09-19T12:07:24;94741.06;;;30.67;32.64
27958;BME280;15295;42.658;23.374;2023-09-19T12:10:22;94716.00;;;30.58;32.04
27958;BME280;15295;42.658;23.374;2023-09-19T12:12:50;94696.75;;;30.56;32.01
27958;BME280;15295;42.658;23.374;2023-09-19T12:15:23;94681.44;;;30.52;31.77
27958;BME280;15295;42.658;23.374;2023-09-19T12:17:54;94713.66;;;30.62;31.93
27958;BME280;15295;42.658;23.374;2023-09-19T12:20:23;94678.31;;;30.55;31.71
27958;BME280;15295;42.658;23.374;2023-09-19T12:22:55;94680.53;;;30.68;31.48
27958;BME280;15295;42.658;23.374;2023-09-19T12:25:24;94707.06;;;31.13;31.15
27958;BME280;15295;42.658;23.374;2023-09-19T12:27:54;94721.31;;;31.26;31.16
27958;BME280;15295;42.658;23.374;2023-09-19T12:30:27;94715.50;;;31.43;31.15
27958;BME280;15295;42.658;23.374;2023-09-19T12:33:03;94670.00;;;31.46;30.88
27958;BME280;15295;42.658;23.374;2023-09-19T12:35:34;94709.97;;;31.99;30.40
27958;BME280;15295;42.658;23.374;2023-09-19T12:38:21;94699.78;;;32.09;30.08
27958;BME280;15295;42.658;23.374;2023-09-19T12:40:50;94689.03;;;32.07;30.03
27958;BME280;15295;42.658;23.374;2023-09-19T12:43:18;94686.78;;;32.19;30.09
27958;BME280;15295;42.658;23.374;2023-09-19T12:45:52;94683.88;;;32.43;29.77
27958;BME280;15295;42.658;23.374;2023-09-19T12:48:27;94676.53;;;32.53;29.43
27958;BME280;15295;42.658;23.374;2023-09-19T12:51:17;94693.56;;;32.66;29.36
27958;BME280;15295;42.658;23.374;2023-09-19T12:53:57;94699.44;;;32.68;29.40
27958;BME280;15295;42.658;23.374;2023-09-19T12:56:22;94704.97;;;32.60;29.57
27958;BME280;15295;42.658;23.374;2023-09-19T12:58:55;94697.91;;;32.67;29.52
27958;BME280;15295;42.658;23.374;2023-09-19T13:06:39;94679.88;;;32.83;29.24
27958;BME280;15295;42.658;23.374;2023-09-19T13:09:17;94665.75;;;32.51;29.26
27958;BME280;15295;42.658;23.374;2023-09-19T13:11:44;94663.06;;;32.59;29.57
27958;BME280;15295;42.658;23.374;2023-09-19T13:14:22;94668.72;;;32.40;29.57
27958;BME280;15295;42.658;23.374;2023-09-19T13:17:04;94667.38;;;32.47;29.67
27958;BME280;15295;42.658;23.374;2023-09-19T13:19:46;94671.09;;;32.55;29.69
27958;BME280;15295;42.658;23.374;2023-09-19T13:22:40;94678.75;;;32.60;29.64
27958;BME280;15295;42.658;23.374;2023-09-19T13:25:15;94672.75;;;32.63;29.53
27958;BME280;15295;42.658;23.374;2023-09-19T13:27:51;94667.00;;;32.69;29.44
27958;BME280;15295;42.658;23.374;2023-09-19T13:30:19;94660.72;;;32.89;29.33
27958;BME280;15295;42.658;23.374;2023-09-19T13:32:46;94657.44;;;33.04;29.07
27958;BME280;15295;42.658;23.374;2023-09-19T13:37:41;94640.28;;;32.96;29.17
27958;BME280;15295;42.658;23.374;2023-09-19T13:40:17;94639.22;;;32.99;29.06
27958;BME280;15295;42.658;23.374;2023-09-19T13:42:43;94618.25;;;32.89;29.01
27958;BME280;15295;42.658;23.374;2023-09-19T13:45:09;94643.16;;;33.22;28.82
27958;BME280;15295;42.658;23.374;2023-09-19T13:47:40;94614.19;;;33.16;28.62
27958;BME280;15295;42.658;23.374;2023-09-19T13:50:06;94633.81;;;33.27;28.66
27958;BME280;15295;42.658;23.374;2023-09-19T13:52:33;94647.72;;;33.38;28.68
27958;BME280;15295;42.658;23.374;2023-09-19T13:54:59;94659.06;;;33.38;28.59
27958;BME280;15295;42.658;23.374;2023-09-19T13:59:54;94647.09;;;33.45;28.49
27958;BME280;15295;42.658;23.374;2023-09-19T14:02:22;94633.34;;;33.36;28.56
27958;BME280;15295;42.658;23.374;2023-09-19T14:04:52;94629.44;;;33.39;28.51
27958;BME280;15295;42.658;23.374;2023-09-19T14:07:28;94614.19;;;33.16;28.83
27958;BME280;15295;42.658;23.374;2023-09-19T14:09:55;94625.69;;;32.92;28.81
27958;BME280;15295;42.658;23.374;2023-09-19T14:12:27;94642.28;;;33.01;28.76
27958;BME280;15295;42.658;23.374;2023-09-19T14:17:24;94644.00;;;33.04;29.05
27958;BME280;15295;42.658;23.374;2023-09-19T14:19:51;94638.03;;;33.08;29.00
27958;BME280;15295;42.658;23.374;2023-09-19T14:22:19;94644.47;;;33.21;28.87
27958;BME280;15295;42.658;23.374;2023-09-19T14:24:46;94630.63;;;33.05;29.12
27958;BME280;15295;42.658;23.374;2023-09-19T14:27:13;94624.66;;;33.08;28.97
27958;BME280;15295;42.658;23.374;2023-09-19T14:29:39;94632.25;;;33.13;28.76
27958;BME280;15295;42.658;23.374;2023-09-19T14:32:06;94629.56;;;33.08;28.98
27958;BME280;15295;42.658;23.374;2023-09-19T14:34:34;94631.56;;;32.94;29.44
27958;BME280;15295;42.658;23.374;2023-09-19T14:37:03;94601.28;;;32.63;29.22
27958;BME280;15295;42.658;23.374;2023-09-19T14:39:41;94630.03;;;32.80;29.30
27958;BME280;15295;42.658;23.374;2023-09-19T14:42:20;94631.31;;;32.79;29.50
27958;BME280;15295;42.658;23.374;2023-09-19T14:44:45;94625.00;;;32.73;29.11